Time;durP1;ratioP1;P1;durP2;ratioP2;P2;SDS_P1;SDS_P2;PMS_P1;PMS_P2;Temp;Humidity;BMP_temperature;BMP_pressure;BME280_temperature;BME280_humidity;BME280_pressure;Samples;Min_cycle;Max_cycle;Signal;HPM_P1;HPM_P2
2021/06/16 00:00:25;;;;;;;4.97;2.22;;;17.80;99.90;;;;;;5034073;28;20024;-75
2021/06/16 00:02:51;;;;;;;10.00;3.33;;;17.80;99.90;;;;;;5023992;28;20029;-75
2021/06/16 00:05:23;;;;;;;7.15;2.72;;;17.80;99.90;;;;;;5035002;28;20872;-72
2021/06/16 00:07:51;;;;;;;8.60;2.92;;;17.80;99.90;;;;;;5024525;28;20041;-73
2021/06/16 00:10:30;;;;;;;12.75;3.05;;;17.70;99.90;;;;;;5026558;28;20112;-75
2021/06/16 00:12:57;;;;;;;7.22;2.88;;;17.70;99.90;;;;;;5038906;28;20918;-74
2021/06/16 00:15:29;;;;;;;10.63;2.97;;;17.60;99.90;;;;;;5031658;28;20033;-74
2021/06/16 00:17:55;;;;;;;5.03;3.07;;;17.60;99.90;;;;;;5027454;28;20040;-74
2021/06/16 00:20:20;;;;;;;8.07;3.03;;;17.70;99.90;;;;;;5032081;28;20317;-75
2021/06/16 00:22:46;;;;;;;5.05;2.67;;;17.70;99.90;;;;;;5030428;28;20120;-76
2021/06/16 00:25:12;;;;;;;6.28;2.78;;;17.70;99.90;;;;;;5031459;28;20057;-75
2021/06/16 00:27:38;;;;;;;6.57;2.85;;;17.60;99.90;;;;;;5030893;28;20117;-74
2021/06/16 00:30:08;;;;;;;11.27;2.75;;;17.60;99.90;;;;;;5030052;28;20033;-73
2021/06/16 00:32:34;;;;;;;5.00;2.55;;;17.70;99.90;;;;;;5036290;28;20025;-74
2021/06/16 00:35:00;;;;;;;9.55;3.15;;;17.80;99.90;;;;;;5027182;28;20032;-73
2021/06/16 00:37:25;;;;;;;7.53;3.67;;;17.80;99.90;;;;;;5031039;28;20024;-73
2021/06/16 00:39:51;;;;;;;8.43;2.50;;;17.90;99.90;;;;;;5026153;28;20017;-75
2021/06/16 00:42:17;;;;;;;6.47;3.70;;;17.80;99.90;;;;;;5027700;28;20045;-74
2021/06/16 00:44:42;;;;;;;7.43;2.85;;;17.70;99.90;;;;;;5031193;28;20026;-73
2021/06/16 00:47:08;;;;;;;9.73;3.00;;;17.70;99.90;;;;;;5029835;28;20033;-75
2021/06/16 00:49:34;;;;;;;7.03;3.20;;;17.80;99.90;;;;;;5023657;28;20018;-75
2021/06/16 00:52:00;;;;;;;9.45;3.42;;;17.70;99.90;;;;;;5022819;28;20034;-73
2021/06/16 00:54:25;;;;;;;13.35;3.70;;;17.80;99.90;;;;;;5028377;28;20041;-74
2021/06/16 00:56:51;;;;;;;8.85;3.08;;;17.70;99.90;;;;;;5024130;28;20057;-74
2021/06/16 00:59:17;;;;;;;10.15;3.03;;;17.70;99.90;;;;;;5027082;28;20123;-73
2021/06/16 01:01:47;;;;;;;9.48;3.30;;;17.70;99.90;;;;;;5045198;28;20031;-74
2021/06/16 01:04:23;;;;;;;6.60;2.95;;;17.70;99.90;;;;;;5044727;28;20017;-72
2021/06/16 01:07:02;;;;;;;6.40;3.55;;;17.70;99.90;;;;;;5042413;28;20760;-74
2021/06/16 01:09:33;;;;;;;10.73;3.75;;;17.70;99.90;;;;;;5041014;28;20006;-74
2021/06/16 01:12:24;;;;;;;10.07;3.05;;;17.80;99.90;;;;;;5040137;28;20041;-75
2021/06/16 01:14:59;;;;;;;12.45;3.92;;;17.80;99.90;;;;;;5040307;28;20036;-74
2021/06/16 01:17:32;;;;;;;8.18;3.90;;;17.60;99.90;;;;;;5043566;28;20119;-74
2021/06/16 01:19:57;;;;;;;5.68;3.20;;;17.70;99.90;;;;;;5033358;28;20100;-73
2021/06/16 01:22:45;;;;;;;5.60;3.53;;;17.70;99.90;;;;;;5029389;28;20559;-74
2021/06/16 01:25:30;;;;;;;13.07;3.60;;;17.70;99.90;;;;;;5031280;28;20025;-72
2021/06/16 01:27:59;;;;;;;6.68;3.65;;;17.60;99.90;;;;;;5016928;28;20037;-75
2021/06/16 01:30:28;;;;;;;11.18;3.75;;;17.60;99.90;;;;;;5036817;28;20057;-73
2021/06/16 01:32:55;;;;;;;7.88;3.40;;;17.60;99.90;;;;;;5039952;28;20076;-73
2021/06/16 01:35:23;;;;;;;15.85;4.38;;;17.60;99.90;;;;;;5040430;28;20014;-73
2021/06/16 01:37:49;;;;;;;13.85;4.70;;;17.50;99.90;;;;;;5038056;28;20148;-75
2021/06/16 01:40:18;;;;;;;7.97;4.03;;;17.50;99.90;;;;;;5035902;28;20045;-75
2021/06/16 01:42:45;;;;;;;9.48;4.60;;;17.50;99.90;;;;;;5037779;28;20075;-75
2021/06/16 01:45:15;;;;;;;10.80;4.05;;;17.40;99.90;;;;;;5034446;28;20077;-73
2021/06/16 01:47:44;;;;;;;12.82;4.75;;;17.40;99.90;;;;;;5033054;28;20052;-74
2021/06/16 01:50:12;;;;;;;7.82;4.68;;;17.50;99.90;;;;;;5027598;28;20024;-72
2021/06/16 01:52:40;;;;;;;6.50;4.68;;;17.50;99.90;;;;;;5036680;28;20044;-74
2021/06/16 01:55:08;;;;;;;12.90;5.25;;;17.30;99.90;;;;;;5035402;28;20022;-76
2021/06/16 01:57:35;;;;;;;11.00;5.35;;;17.30;99.90;;;;;;5022374;28;20072;-75
2021/06/16 02:00:03;;;;;;;10.30;4.82;;;17.30;99.90;;;;;;5026294;28;20045;-74
2021/06/16 02:02:30;;;;;;;8.13;5.03;;;17.30;99.90;;;;;;5026945;28;20095;-73
2021/06/16 02:04:57;;;;;;;13.02;5.45;;;17.20;99.90;;;;;;5031557;28;20032;-75
2021/06/16 02:07:28;;;;;;;7.88;5.10;;;17.20;99.90;;;;;;5019600;28;20018;-75
2021/06/16 02:09:56;;;;;;;11.38;5.40;;;17.20;99.90;;;;;;5027308;28;20033;-75
2021/06/16 02:12:23;;;;;;;10.43;4.75;;;17.30;99.90;;;;;;5026412;28;20104;-75
2021/06/16 02:14:56;;;;;;;20.10;5.97;;;17.30;99.90;;;;;;5027988;28;20025;-75
2021/06/16 02:17:25;;;;;;;6.90;5.72;;;17.20;99.90;;;;;;5024029;28;20026;-74
2021/06/16 02:19:53;;;;;;;13.63;5.35;;;17.20;99.90;;;;;;5025165;28;20036;-74
2021/06/16 02:22:19;;;;;;;6.97;5.53;;;17.30;99.90;;;;;;5019375;28;20029;-73
2021/06/16 02:24:45;;;;;;;11.82;5.78;;;17.30;99.90;;;;;;5021567;28;20026;-76
2021/06/16 02:27:12;;;;;;;9.65;5.25;;;17.20;99.90;;;;;;5026537;28;20036;-73
2021/06/16 02:29:38;;;;;;;13.30;5.97;;;17.20;99.90;;;;;;5028061;28;20094;-74
2021/06/16 02:32:04;;;;;;;15.82;5.47;;;17.30;99.90;;;;;;5028227;28;20029;-75
2021/06/16 02:34:31;;;;;;;11.57;5.88;;;17.30;99.90;;;;;;5022369;28;20408;-76
2021/06/16 02:37:02;;;;;;;10.32;5.75;;;17.20;99.90;;;;;;5045112;28;20052;-73
2021/06/16 02:39:39;;;;;;;12.05;6.28;;;17.20;99.90;;;;;;5046858;28;20033;-73
2021/06/16 02:42:07;;;;;;;12.00;6.47;;;17.10;99.90;;;;;;5044251;28;20014;-73
2021/06/16 02:44:39;;;;;;;11.70;5.28;;;17.10;99.90;;;;;;5050285;28;20037;-73
2021/06/16 02:47:08;;;;;;;12.85;5.10;;;17.20;99.90;;;;;;5051114;28;20025;-75
2021/06/16 02:49:43;;;;;;;11.70;5.57;;;17.20;99.90;;;;;;5037766;28;20048;-73
2021/06/16 02:52:11;;;;;;;9.93;5.93;;;17.20;99.90;;;;;;5031111;28;20639;-75
2021/06/16 02:54:38;;;;;;;11.30;6.25;;;17.30;99.90;;;;;;5027064;28;20018;-73
2021/06/16 02:57:06;;;;;;;13.55;5.82;;;17.20;99.90;;;;;;5025465;28;20696;-74
2021/06/16 02:59:34;;;;;;;12.38;6.80;;;17.20;99.90;;;;;;5024857;28;20025;-74
2021/06/16 03:02:01;;;;;;;11.20;5.55;;;17.00;99.90;;;;;;5026893;28;20064;-74
2021/06/16 03:04:28;;;;;;;14.35;6.05;;;17.00;99.90;;;;;;5019144;28;20053;-72
2021/06/16 03:06:56;;;;;;;12.90;6.65;;;16.90;99.90;;;;;;5025678;28;20354;-74
2021/06/16 03:09:24;;;;;;;9.30;5.82;;;16.80;99.90;;;;;;5013151;28;20010;-74
2021/06/16 03:11:54;;;;;;;15.05;6.85;;;16.70;99.90;;;;;;5029310;28;20084;-75
2021/06/16 03:14:22;;;;;;;10.18;5.78;;;16.80;99.90;;;;;;5023675;28;20025;-74
2021/06/16 03:16:48;;;;;;;13.18;6.07;;;16.70;99.90;;;;;;5020805;28;20389;-74
2021/06/16 03:19:14;;;;;;;14.23;5.88;;;16.70;99.90;;;;;;5029447;28;20120;-74
2021/06/16 03:21:43;;;;;;;14.10;6.88;;;16.70;99.90;;;;;;5029380;28;20036;-74
2021/06/16 03:24:10;;;;;;;14.10;6.18;;;16.70;99.90;;;;;;5029528;28;20101;-75
2021/06/16 03:26:36;;;;;;;12.27;6.30;;;16.60;99.90;;;;;;5026298;28;20025;-73
2021/06/16 03:29:02;;;;;;;12.88;6.72;;;16.60;99.90;;;;;;5031044;28;20017;-74
2021/06/16 03:31:28;;;;;;;12.23;6.40;;;16.60;99.90;;;;;;5034561;28;20021;-75
2021/06/16 03:33:55;;;;;;;9.27;6.05;;;16.60;99.90;;;;;;5037724;28;20013;-74
2021/06/16 03:36:21;;;;;;;9.02;6.65;;;16.60;99.90;;;;;;5031493;28;20514;-75
2021/06/16 03:38:50;;;;;;;9.43;5.63;;;16.70;99.90;;;;;;5028149;28;20040;-74
2021/06/16 03:41:19;;;;;;;10.23;6.00;;;16.70;99.90;;;;;;5031203;28;20389;-73
2021/06/16 03:43:48;;;;;;;18.30;6.78;;;16.70;99.90;;;;;;5030879;28;20553;-75
2021/06/16 03:46:16;;;;;;;13.02;6.57;;;16.70;99.90;;;;;;5033239;28;20436;-75
2021/06/16 03:48:45;;;;;;;13.35;7.28;;;16.70;99.90;;;;;;5020986;28;20519;-74
2021/06/16 03:51:13;;;;;;;12.68;6.28;;;16.70;99.90;;;;;;5038397;28;20425;-74
2021/06/16 03:53:44;;;;;;;7.78;5.97;;;16.80;99.90;;;;;;5036365;28;20041;-75
2021/06/16 03:56:10;;;;;;;15.88;6.65;;;16.80;99.90;;;;;;5023617;28;20605;-74
2021/06/16 03:58:40;;;;;;;16.50;6.72;;;16.80;99.90;;;;;;5031573;28;20056;-74
2021/06/16 04:01:06;;;;;;;12.45;6.40;;;16.80;99.90;;;;;;5036584;28;20108;-74
2021/06/16 04:03:32;;;;;;;10.55;6.30;;;16.80;99.90;;;;;;5029231;28;20120;-74
2021/06/16 04:05:59;;;;;;;15.80;7.05;;;16.80;99.90;;;;;;5028998;28;20026;-73
2021/06/16 04:08:26;;;;;;;13.90;6.88;;;16.80;99.90;;;;;;5025380;28;20022;-73
2021/06/16 04:10:56;;;;;;;12.05;6.60;;;16.80;99.90;;;;;;5024188;28;20030;-73
2021/06/16 04:13:22;;;;;;;10.40;5.78;;;16.70;99.90;;;;;;5023790;28;20529;-72
2021/06/16 04:15:54;;;;;;;14.93;6.70;;;16.80;99.90;;;;;;5020050;28;20041;-73
2021/06/16 04:18:19;;;;;;;10.45;6.47;;;16.80;99.90;;;;;;5024114;28;20041;-72
2021/06/16 04:20:46;;;;;;;14.07;7.15;;;16.90;99.90;;;;;;5026415;28;20030;-74
2021/06/16 04:23:12;;;;;;;18.05;6.50;;;17.00;99.90;;;;;;5027762;28;20109;-74
2021/06/16 04:25:43;;;;;;;8.77;6.32;;;16.90;99.90;;;;;;5038073;28;20037;-71
2021/06/16 04:28:15;;;;;;;12.40;6.68;;;16.90;99.90;;;;;;5037955;28;20049;-74
2021/06/16 04:30:42;;;;;;;12.95;6.32;;;17.00;99.90;;;;;;5036487;28;20022;-73
2021/06/16 04:33:17;;;;;;;12.23;6.55;;;17.00;99.90;;;;;;5027688;28;20032;-73
2021/06/16 04:35:51;;;;;;;13.27;7.18;;;17.10;99.90;;;;;;5034590;28;20059;-76
2021/06/16 04:38:22;;;;;;;18.20;6.75;;;17.20;99.90;;;;;;5034122;28;20120;-74
2021/06/16 04:40:53;;;;;;;11.00;6.05;;;17.30;99.90;;;;;;5024071;28;20064;-71
2021/06/16 04:43:23;;;;;;;10.25;5.75;;;17.40;99.90;;;;;;5034362;28;20114;-75
2021/06/16 04:45:50;;;;;;;9.80;5.68;;;17.50;99.90;;;;;;5038385;28;20454;-74
2021/06/16 04:48:49;;;;;;;15.82;6.05;;;17.60;99.90;;;;;;5040325;28;20018;-74
2021/06/16 04:51:33;;;;;;;11.23;5.70;;;17.60;99.90;;;;;;5043089;28;20062;-74
2021/06/16 04:54:00;;;;;;;12.13;5.38;;;17.70;99.90;;;;;;5044589;28;20048;-75
2021/06/16 04:56:27;;;;;;;13.02;5.35;;;17.70;99.90;;;;;;5043145;28;20075;-76
2021/06/16 04:58:59;;;;;;;11.73;5.90;;;17.80;99.90;;;;;;5042138;28;20024;-75
2021/06/16 05:02:01;;;;;;;15.65;5.88;;;17.80;99.90;;;;;;5038789;28;20026;-73
2021/06/16 05:04:51;;;;;;;11.37;5.83;;;17.80;99.90;;;;;;5036354;28;20112;-75
2021/06/16 05:07:24;;;;;;;6.70;5.40;;;17.90;99.90;;;;;;5033037;28;20040;-75
2021/06/16 05:10:16;;;;;;;13.50;5.40;;;18.00;99.90;;;;;;5031364;28;20046;-75
2021/06/16 05:12:55;;;;;;;11.10;5.75;;;18.00;99.90;;;;;;5055392;28;20053;-73
2021/06/16 05:15:30;;;;;;;12.65;5.72;;;18.00;99.90;;;;;;5048045;28;20040;-74
2021/06/16 05:18:09;;;;;;;9.60;5.47;;;18.00;99.90;;;;;;5043646;28;20029;-75
2021/06/16 05:20:48;;;;;;;8.77;5.28;;;18.10;99.90;;;;;;5059618;28;20418;-73
2021/06/16 05:23:39;;;;;;;17.30;5.43;;;18.20;99.90;;;;;;5043488;28;20014;-74
2021/06/16 05:26:08;;;;;;;8.20;5.45;;;18.30;99.90;;;;;;5048780;28;20052;-75
2021/06/16 05:28:52;;;;;;;7.20;5.20;;;18.30;99.90;;;;;;5046942;28;20037;-74
2021/06/16 05:31:21;;;;;;;11.88;7.03;;;18.30;99.90;;;;;;5043875;28;20077;-73
2021/06/16 05:34:05;;;;;;;19.20;6.13;;;18.30;99.90;;;;;;5044431;28;20029;-75
2021/06/16 05:36:45;;;;;;;11.50;5.85;;;18.20;99.90;;;;;;5051114;28;20021;-75
2021/06/16 05:39:34;;;;;;;16.15;6.25;;;18.20;99.90;;;;;;5053618;28;20006;-74
2021/06/16 05:42:03;;;;;;;11.57;6.22;;;18.30;99.90;;;;;;5043263;28;20034;-74
2021/06/16 05:44:32;;;;;;;10.02;5.18;;;18.50;99.90;;;;;;5052804;28;20034;-76
2021/06/16 05:47:17;;;;;;;15.93;6.03;;;18.50;99.90;;;;;;5052224;28;20014;-74
2021/06/16 05:49:49;;;;;;;14.15;5.97;;;18.70;99.90;;;;;;5052097;28;20025;-75
2021/06/16 05:52:14;;;;;;;12.20;5.88;;;18.80;99.90;;;;;;5052265;28;20032;-76
2021/06/16 05:54:40;;;;;;;8.40;5.68;;;18.80;99.90;;;;;;5043635;28;20025;-75
2021/06/16 05:57:06;;;;;;;12.55;5.85;;;19.00;99.90;;;;;;5041155;28;20085;-74
2021/06/16 05:59:37;;;;;;;10.88;5.78;;;19.10;99.90;;;;;;5052605;28;20070;-75
2021/06/16 06:02:03;;;;;;;10.80;5.72;;;19.30;99.90;;;;;;5048143;28;20079;-76
2021/06/16 06:04:34;;;;;;;12.88;5.95;;;19.50;99.90;;;;;;5041045;28;20066;-76
2021/06/16 06:06:59;;;;;;;13.77;5.75;;;19.70;99.90;;;;;;5029668;28;20077;-77
2021/06/16 06:09:26;;;;;;;12.05;5.30;;;19.90;99.90;;;;;;5036152;28;20024;-75
2021/06/16 06:12:13;;;;;;;10.68;5.32;;;20.30;99.90;;;;;;5043771;28;20018;-75
2021/06/16 06:14:47;;;;;;;13.30;5.68;;;20.50;99.90;;;;;;5041268;28;20085;-75
2021/06/16 06:17:33;;;;;;;13.95;5.80;;;20.70;99.90;;;;;;5046585;28;20020;-75
2021/06/16 06:20:05;;;;;;;12.82;5.43;;;21.00;99.90;;;;;;5042445;28;20006;-75
2021/06/16 06:22:40;;;;;;;;;;;21.20;99.90;;;;;;5048934;28;20041;-78
2021/06/16 06:25:44;;;;;;;9.10;5.10;;;21.30;99.90;;;;;;5048737;28;19917;-79
2021/06/16 06:28:54;;;;;;;11.52;6.13;;;21.40;99.90;;;;;;5044571;28;20126;-75
2021/06/16 06:31:37;;;;;;;20.08;5.40;;;21.80;99.90;;;;;;5044519;28;20056;-78
2021/06/16 06:34:05;;;;;;;19.75;5.75;;;22.10;99.90;;;;;;5044205;28;20245;-77
2021/06/16 06:36:41;;;;;;;13.70;5.32;;;22.30;99.90;;;;;;5047549;28;20018;-76
2021/06/16 06:39:10;;;;;;;15.60;5.65;;;22.40;99.90;;;;;;5056647;28;20093;-76
2021/06/16 06:41:42;;;;;;;18.40;6.05;;;22.50;99.90;;;;;;5047979;28;20101;-75
2021/06/16 06:44:14;;;;;;;8.68;4.82;;;22.60;99.90;;;;;;5046455;28;20111;-77
2021/06/16 06:46:55;;;;;;;17.20;4.88;;;22.80;99.90;;;;;;5055097;28;20026;-76
2021/06/16 06:49:27;;;;;;;7.85;4.07;;;23.00;99.90;;;;;;5046642;28;20084;-77
2021/06/16 06:51:52;;;;;;;10.90;4.40;;;23.20;99.90;;;;;;5046176;28;20009;-75
2021/06/16 06:54:21;;;;;;;12.23;4.43;;;23.30;99.90;;;;;;5045044;28;20075;-75
2021/06/16 06:56:55;;;;;;;11.77;4.20;;;23.40;99.90;;;;;;5046098;28;20014;-77
2021/06/16 06:59:45;;;;;;;9.13;3.65;;;23.50;99.90;;;;;;5048675;28;20018;-76
2021/06/16 07:02:11;;;;;;;11.95;4.03;;;23.50;99.90;;;;;;5046797;28;20069;-76
2021/06/16 07:04:39;;;;;;;7.70;4.03;;;23.50;99.90;;;;;;5059619;28;20030;-75
2021/06/16 07:07:04;;;;;;;7.05;3.95;;;23.50;99.90;;;;;;5052830;28;20045;-77
2021/06/16 07:09:39;;;;;;;8.30;3.67;;;23.60;99.90;;;;;;5048183;28;20060;-76
2021/06/16 07:12:09;;;;;;;7.35;3.85;;;23.70;99.90;;;;;;5047194;28;20014;-77
2021/06/16 07:14:39;;;;;;;12.82;5.72;;;23.60;99.90;;;;;;5045714;28;20076;-76
2021/06/16 07:17:04;;;;;;;10.60;4.32;;;23.60;99.90;;;;;;5045244;28;20010;-75
2021/06/16 07:19:32;;;;;;;7.88;4.13;;;23.50;99.90;;;;;;5046214;28;20292;-76
2021/06/16 07:21:58;;;;;;;11.88;4.28;;;23.40;99.90;;;;;;5070476;28;20017;-76
2021/06/16 07:24:24;;;;;;;11.55;4.10;;;23.60;99.90;;;;;;5049828;28;20017;-76
2021/06/16 07:26:49;;;;;;;8.88;3.90;;;23.80;99.90;;;;;;5047399;28;20044;-76
2021/06/16 07:29:15;;;;;;;7.32;3.13;;;23.90;99.90;;;;;;5049456;28;20077;-78
2021/06/16 07:31:44;;;;;;;7.40;3.88;;;24.10;99.90;;;;;;5043604;28;20050;-76
2021/06/16 07:34:11;;;;;;;13.20;3.95;;;24.10;99.90;;;;;;5055497;28;20017;-77
2021/06/16 07:36:37;;;;;;;13.02;4.97;;;24.10;99.90;;;;;;5055251;28;20032;-78
2021/06/16 07:39:04;;;;;;;9.00;4.18;;;24.20;99.90;;;;;;5054119;28;20028;-78
2021/06/16 07:41:39;;;;;;;9.50;3.65;;;24.20;99.90;;;;;;5061837;28;20013;-77
2021/06/16 07:44:11;;;;;;;10.13;4.32;;;24.20;99.90;;;;;;5053300;28;20029;-79
2021/06/16 07:46:38;;;;;;;9.27;4.07;;;24.30;99.90;;;;;;5053904;28;20010;-78
2021/06/16 07:49:06;;;;;;;11.45;4.10;;;24.40;99.90;;;;;;5053147;28;20040;-79
2021/06/16 07:51:33;;;;;;;9.85;3.88;;;24.40;99.90;;;;;;5053548;28;20029;-77
2021/06/16 07:54:00;;;;;;;8.63;3.30;;;24.40;99.90;;;;;;5052680;28;20063;-79
2021/06/16 07:56:27;;;;;;;8.20;3.15;;;24.30;99.90;;;;;;5051568;28;20025;-78
2021/06/16 07:58:53;;;;;;;9.52;3.47;;;24.10;99.90;;;;;;5053431;28;20065;-77
2021/06/16 08:01:21;;;;;;;11.60;3.25;;;24.00;99.90;;;;;;5049676;28;20105;-76
2021/06/16 08:03:49;;;;;;;11.43;3.45;;;24.00;99.90;;;;;;5043466;28;20074;-78
2021/06/16 08:06:15;;;;;;;8.65;3.15;;;24.00;99.90;;;;;;5051658;28;20017;-76
2021/06/16 08:08:40;;;;;;;12.07;3.53;;;24.00;99.90;;;;;;5053801;28;20045;-77
2021/06/16 08:11:10;;;;;;;5.40;3.20;;;24.00;99.90;;;;;;5052301;28;20214;-78
2021/06/16 08:13:36;;;;;;;6.80;3.15;;;24.10;99.90;;;;;;5049181;28;20049;-77
2021/06/16 08:16:03;;;;;;;9.77;3.40;;;24.40;99.90;;;;;;5047828;28;20030;-78
2021/06/16 08:18:29;;;;;;;10.77;3.55;;;24.50;99.90;;;;;;5044245;28;20018;-77
2021/06/16 08:20:54;;;;;;;12.77;3.05;;;24.60;99.90;;;;;;5047167;28;20029;-77
2021/06/16 08:23:20;;;;;;;6.30;2.75;;;24.80;99.90;;;;;;5048299;28;20052;-75
2021/06/16 08:25:48;;;;;;;9.43;3.65;;;25.00;99.90;;;;;;5052644;28;20029;-77
2021/06/16 08:28:21;;;;;;;13.40;3.17;;;24.90;99.90;;;;;;5053062;28;20041;-76
2021/06/16 08:30:47;;;;;;;6.30;3.28;;;25.00;99.10;;;;;;5053013;28;20073;-77
2021/06/16 08:33:12;;;;;;;5.13;3.20;;;24.90;99.50;;;;;;5053686;28;20037;-77
2021/06/16 08:35:38;;;;;;;7.93;3.13;;;24.80;99.90;;;;;;5051048;28;20021;-76
2021/06/16 08:38:04;;;;;;;10.70;3.13;;;24.90;99.90;;;;;;5053609;28;20018;-76
2021/06/16 08:40:31;;;;;;;9.13;3.25;;;25.10;99.90;;;;;;5052801;28;20119;-78
2021/06/16 08:42:57;;;;;;;9.23;3.25;;;25.10;99.60;;;;;;5051617;28;20155;-77
2021/06/16 08:45:23;;;;;;;8.75;2.97;;;24.80;99.90;;;;;;5048568;28;20033;-77
2021/06/16 08:47:50;;;;;;;13.30;3.35;;;24.90;99.90;;;;;;5047057;28;20029;-79
2021/06/16 08:50:18;;;;;;;9.50;3.03;;;25.10;99.90;;;;;;5042118;28;20166;-77
2021/06/16 08:52:46;;;;;;;12.85;4.20;;;25.10;99.90;;;;;;5038121;28;20026;-76
2021/06/16 08:55:19;;;;;;;6.80;2.95;;;25.20;99.50;;;;;;5047710;28;20014;-80
2021/06/16 08:57:48;;;;;;;9.00;3.17;;;25.20;99.80;;;;;;5056043;28;20045;-76
2021/06/16 09:00:17;;;;;;;10.55;3.75;;;25.40;99.50;;;;;;5047651;28;20049;-77
2021/06/16 09:02:44;;;;;;;10.02;3.50;;;25.30;99.30;;;;;;5040998;28;20021;-77
2021/06/16 09:05:12;;;;;;;9.27;3.00;;;25.20;98.80;;;;;;5045233;28;20033;-77
2021/06/16 09:07:41;;;;;;;5.85;2.63;;;25.30;98.70;;;;;;5047762;28;20140;-77
2021/06/16 09:10:13;;;;;;;10.43;3.17;;;25.40;99.40;;;;;;5051576;22;20045;-66
2021/06/16 09:12:50;;;;;;;5.72;3.30;;;25.10;99.90;;;;;;5040396;28;20036;-66
2021/06/16 09:15:19;;;;;;;7.25;3.38;;;25.50;99.10;;;;;;5046440;28;20156;-66
2021/06/16 09:18:05;;;;;;;8.80;3.05;;;25.60;98.50;;;;;;5045263;28;20040;-63
2021/06/16 09:20:35;;;;;;;7.22;3.33;;;25.40;98.40;;;;;;5040932;28;20029;-65
2021/06/16 09:23:11;;;;;;;10.90;3.17;;;25.20;98.60;;;;;;5037639;28;20521;-65
2021/06/16 09:25:38;;;;;;;7.60;2.80;;;25.20;99.50;;;;;;5040824;28;20053;-66
2021/06/16 09:28:04;;;;;;;7.38;3.05;;;25.40;99.40;;;;;;5047066;28;20215;-66
2021/06/16 09:30:32;;;;;;;5.80;3.08;;;25.60;99.10;;;;;;5050977;28;20033;-66
2021/06/16 09:33:04;;;;;;;7.50;2.90;;;25.60;98.60;;;;;;5045705;28;20009;-64
2021/06/16 09:35:32;;;;;;;5.30;3.20;;;25.50;98.20;;;;;;5041644;28;20021;-65
2021/06/16 09:38:00;;;;;;;4.28;2.70;;;25.40;98.30;;;;;;5038455;28;20065;-65
2021/06/16 09:40:38;;;;;;;10.10;3.60;;;25.40;98.40;;;;;;5036926;28;20329;-65
2021/06/16 09:43:09;;;;;;;8.52;3.13;;;25.60;99.00;;;;;;5038968;28;20017;-65
2021/06/16 09:45:37;;;;;;;10.55;3.08;;;25.60;98.10;;;;;;5051752;28;20065;-67
2021/06/16 09:48:27;;;;;;;8.70;2.75;;;25.50;98.60;;;;;;5043065;28;20031;-65
2021/06/16 09:51:09;;;;;;;5.07;3.00;;;25.60;98.60;;;;;;5047481;28;20123;-65
2021/06/16 09:53:51;;;;;;;10.13;2.70;;;25.70;98.60;;;;;;5038450;28;20018;-65
2021/06/16 09:56:16;;;;;;;;;;;25.60;98.80;;;;;;5038228;28;20565;-66
2021/06/16 09:58:54;;;;;;;3.30;2.63;;;25.90;98.50;;;;;;5052547;28;20008;-67
2021/06/16 10:01:46;;;;;;;8.93;3.42;;;25.90;97.80;;;;;;5036387;28;20036;-65
2021/06/16 10:04:39;;;;;;;12.60;3.13;;;25.80;97.90;;;;;;5034094;28;20193;-65
2021/06/16 10:07:32;;;;;;;8.10;3.10;;;25.70;98.10;;;;;;5045357;28;20048;-66
2021/06/16 10:10:05;;;;;;;7.63;3.35;;;26.00;98.70;;;;;;5043466;28;20045;-63
2021/06/16 10:12:32;;;;;;;7.05;3.20;;;25.90;98.00;;;;;;5043635;28;20049;-65
2021/06/16 10:15:01;;;;;;;9.40;3.05;;;25.80;98.20;;;;;;5035467;28;20033;-66
2021/06/16 10:17:27;;;;;;;5.97;3.28;;;26.00;97.80;;;;;;5040450;28;20040;-69
2021/06/16 10:19:53;;;;;;;7.88;3.67;;;26.10;97.20;;;;;;5041692;28;20097;-66
2021/06/16 10:22:20;;;;;;;8.73;2.92;;;26.30;96.80;;;;;;5044713;28;20056;-67
2021/06/16 10:24:50;;;;;;;9.70;2.65;;;26.30;97.60;;;;;;5043387;28;20025;-66
2021/06/16 10:27:30;;;;;;;7.82;3.13;;;26.30;97.10;;;;;;5058556;28;20025;-66
2021/06/16 10:30:15;;;;;;;8.10;2.95;;;26.50;96.80;;;;;;5057379;28;20021;-68
2021/06/16 10:32:43;;;;;;;8.05;2.15;;;26.20;96.50;;;;;;5054711;28;20325;-65
2021/06/16 10:35:14;;;;;;;7.60;3.42;;;26.10;97.20;;;;;;5065456;28;20041;-65
2021/06/16 10:37:42;;;;;;;10.60;3.05;;;26.40;97.90;;;;;;5055004;28;20025;-64
2021/06/16 10:40:17;;;;;;;4.38;2.53;;;26.40;97.10;;;;;;5042865;28;20130;-66
2021/06/16 10:43:05;;;;;;;5.32;3.40;;;26.80;97.30;;;;;;5045439;28;20255;-66
2021/06/16 10:45:36;;;;;;;10.15;3.67;;;27.00;96.10;;;;;;5055005;28;20128;-66
2021/06/16 10:48:07;;;;;;;10.35;3.65;;;26.80;96.00;;;;;;5047718;28;20017;-67
2021/06/16 10:50:45;;;;;;;10.55;3.80;;;26.70;96.50;;;;;;5040410;28;20257;-66
2021/06/16 10:53:32;;;;;;;6.22;3.63;;;27.00;95.90;;;;;;5042095;28;20020;-67
2021/06/16 10:56:03;;;;;;;9.50;3.65;;;27.20;96.00;;;;;;5038154;28;20180;-64
2021/06/16 10:58:33;;;;;;;9.70;3.47;;;27.50;95.60;;;;;;5029315;28;20052;-66
2021/06/16 11:01:16;;;;;;;7.75;3.92;;;27.60;95.10;;;;;;5040450;28;20024;-65
2021/06/16 11:03:51;;;;;;;6.35;3.58;;;27.60;94.40;;;;;;5040695;28;20032;-67
2021/06/16 11:06:36;;;;;;;9.38;3.75;;;27.30;95.00;;;;;;5028900;28;20021;-65
2021/06/16 11:09:10;;;;;;;9.55;3.72;;;27.60;95.50;;;;;;5029369;28;20021;-66
2021/06/16 11:11:52;;;;;;;11.38;4.28;;;27.50;94.80;;;;;;5034133;28;20072;-67
2021/06/16 11:14:36;;;;;;;11.38;4.60;;;27.50;95.10;;;;;;5037963;28;20435;-66
2021/06/16 11:17:05;;;;;;;6.38;4.22;;;27.30;93.80;;;;;;5040133;28;20033;-66
2021/06/16 11:19:36;;;;;;;5.18;3.63;;;27.20;94.60;;;;;;5043038;28;20422;-65
2021/06/16 11:22:12;;;;;;;6.43;4.22;;;27.20;95.00;;;;;;5042759;28;20089;-66
2021/06/16 11:25:17;;;;;;;8.88;4.35;;;27.30;95.40;;;;;;5039873;28;20025;-67
2021/06/16 11:33:21;;;;;;;9.43;3.83;;;27.40;95.40;;;;;;5068801;28;20041;-66
2021/06/16 11:36:04;;;;;;;7.93;3.92;;;27.60;94.60;;;;;;5044773;28;20599;-66
2021/06/16 11:38:40;;;;;;;5.15;3.97;;;27.60;94.50;;;;;;5069394;28;20025;-65
2021/06/16 11:41:05;;;;;;;10.13;5.05;;;27.60;93.50;;;;;;5059445;28;20028;-67
2021/06/16 11:43:34;;;;;;;7.30;3.33;;;27.50;94.80;;;;;;5054278;28;20037;-66
2021/06/16 11:46:11;;;;;;;6.90;3.55;;;27.70;95.30;;;;;;5062913;28;20192;-67
2021/06/16 11:48:37;;;;;;;7.22;4.57;;;28.00;95.90;;;;;;5051050;28;20074;-65
2021/06/16 11:51:03;;;;;;;9.18;4.60;;;28.40;93.40;;;;;;5059262;28;20092;-64
2021/06/16 11:53:31;;;;;;;9.95;4.97;;;28.50;93.40;;;;;;5059929;28;20484;-66
2021/06/16 11:56:01;;;;;;;7.22;4.55;;;28.00;93.10;;;;;;5058942;28;20049;-63
2021/06/16 11:58:35;;;;;;;6.90;4.30;;;27.90;94.20;;;;;;5058457;28;20045;-66
2021/06/16 12:01:10;;;;;;;11.05;5.30;;;27.90;93.80;;;;;;5052282;28;20509;-64
2021/06/16 12:03:39;;;;;;;6.70;4.18;;;28.00;93.40;;;;;;5070418;28;20020;-65
2021/06/16 12:06:11;;;;;;;7.28;4.13;;;28.00;94.70;;;;;;5056708;28;20099;-64
2021/06/16 12:08:37;;;;;;;12.32;4.85;;;28.20;94.40;;;;;;5065546;28;20029;-65
2021/06/16 12:11:20;;;;;;;7.57;4.22;;;28.00;93.80;;;;;;5041067;28;20016;-63
2021/06/16 12:14:02;;;;;;;6.07;4.35;;;28.10;94.20;;;;;;5049576;28;20021;-64
2021/06/16 12:16:30;;;;;;;8.20;4.20;;;28.00;94.20;;;;;;5066375;28;20498;-66
2021/06/16 12:19:19;;;;;;;12.10;4.93;;;28.00;94.70;;;;;;5056200;28;20245;-64
2021/06/16 12:21:52;;;;;;;7.43;4.55;;;28.10;94.30;;;;;;5058255;28;20029;-66
2021/06/16 12:24:39;;;;;;;11.23;5.68;;;28.20;94.20;;;;;;5060520;28;20024;-63
2021/06/16 12:27:25;;;;;;;17.70;6.07;;;28.30;93.70;;;;;;5064029;28;20029;-66
2021/06/16 12:29:54;;;;;;;9.32;4.60;;;28.10;92.90;;;;;;5061958;28;20119;-64
2021/06/16 12:32:41;;;;;;;12.80;5.18;;;28.00;94.50;;;;;;5062792;28;20024;-65
2021/06/16 12:37:49;;;;;;;13.27;6.13;;;28.30;93.30;;;;;;5059569;28;20025;-64
2021/06/16 12:40:15;;;;;;;23.15;6.80;;;28.30;93.40;;;;;;5063332;28;20028;-64
2021/06/16 12:42:44;;;;;;;8.18;5.40;;;28.30;93.80;;;;;;5061274;28;20028;-64
2021/06/16 12:45:36;;;;;;;12.38;4.72;;;28.50;93.90;;;;;;5052505;28;20079;-66
2021/06/16 12:48:23;;;;;;;8.65;5.07;;;28.90;94.10;;;;;;5052534;28;20061;-65
2021/06/16 12:51:00;;;;;;;13.35;5.38;;;29.40;93.30;;;;;;5053943;28;20025;-64
2021/06/16 12:53:27;;;;;;;10.82;6.75;;;29.40;92.30;;;;;;5058715;28;20021;-64
2021/06/16 12:55:59;;;;;;;12.02;6.53;;;29.60;92.10;;;;;;5054001;28;20010;-63
2021/06/16 12:58:25;;;;;;;10.70;5.72;;;29.70;91.70;;;;;;5064321;28;20069;-63
2021/06/16 13:00:56;;;;;;;22.73;7.13;;;29.70;92.30;;;;;;5055934;28;20111;-64
2021/06/16 13:03:25;;;;;;;11.82;5.45;;;29.50;91.20;;;;;;5055846;28;20020;-64
2021/06/16 13:05:57;;;;;;;6.90;4.88;;;29.60;92.10;;;;;;5046625;28;20092;-65
2021/06/16 13:08:43;;;;;;;10.00;6.07;;;29.60;92.20;;;;;;5059593;28;20109;-66
2021/06/16 13:11:21;;;;;;;14.38;7.03;;;29.50;91.80;;;;;;5054848;28;20021;-65
2021/06/16 13:13:49;;;;;;;9.15;5.32;;;29.00;92.10;;;;;;5062054;28;20090;-63